Meath Environmental Platform

Observations

Time Sensor AQI SAQ Temp °C Hum % Pres Pa CO μg/m³ H₂S μg/m³ NO μg/m³ NO₂ μg/m³ O₃ μg/m³ SO₂ μg/m³ CO₂e PPM VOC PPM PM1 μg/m³ PM2.5 μg/m³ PM4 μg/m³ PM10 μg/m³ TPS µm
Wednesday 12 August 2026
00:21 Trim Market St 2 21.1 55 57,322 0 0 1.24 20.78 56.86 0 2.14 4.26 5.38
00:20 Trim Patrick St 3 20.4 59 72,261 0 8.94 1.21 22.26 42.04 2.87 4.57 9.54 10.49
00:20 Trim Market St 2 21.2 55 57,265 0 0 1.24 30.16 57.21 0 1.43 4.77 6.81
00:19 Trim Market St 2 21.2 55 57,181 0 0 1.25 14.93 62.62 0 0.71 2.75 3.23
00:18 Trim Market St 2 21.2 55 57,197 0 0 1.25 20.41 57.15 0 0.71 3.25 4.66
00:17 Trim Market St 2 21.2 55 57,130 0 0 1.24 13.01 62.15 0 1.43 3.77 4.66
00:16 Trim Market St 2 21.2 55 57,111 0 0 1.24 21.02 56.73 0 0 2.75 3.23
00:16 Trim Patrick St 3 20.5 60 71,933 0 9.78 1.21 35.52 49.25 3.48 4.57 8.79 9.67
00:15 Trim Market St 2 21.2 55 57,051 0 0 1.24 18.47 63.95 0 1.43 3.77 4.66
00:15 Trim Patrick St 3 20.5 58 71,823 0 8.1 1.21 21.48 52.52 3.43 4.57 9.68 10.65
00:14 Trim Market St 2 21.2 55 56,983 0 0 1.23 19.7 53.34 0 0.71 3.27 4.66
00:14 Trim Patrick St 3 20.6 58 71,772 0 7.75 1.2 24.25 48.67 3.02 4.57 9.64 10.61
00:13 Trim Market St 2 21.3 55 56,898 0 0 1.23 23.8 52.87 0 0.71 2.76 3.22
00:13 Trim Patrick St 3 20.6 59 71,672 0 8.31 1.21 20.2 40.74 3.22 4.57 8.85 9.74
00:12 Trim Market St 2 21.3 55 56,828 0 0 1.23 20.93 64.63 0 0.71 3.27 5.37
00:12 Trim Patrick St 3 20.5 59 71,562 0 8.89 1.2 32.4 51.02 3.39 3.71 8.11 8.92
00:11 Trim Market St 2 21.3 54 56,769 0 0 1.23 28.73 57.13 0 1.43 2.77 3.21
00:11 Trim Patrick St 3 20.6 59 71,454 0 9.2 1.21 21.59 43.77 2.85 2.86 7.35 8.09
00:10 Trim Market St 2 21.3 54 56,663 0 0 1.23 18.35 62.9 0 2.85 4.81 6.09
00:10 Trim Patrick St 3 20.6 58 71,363 0 10.04 1.2 28.95 54.32 4.11 4.57 8.88 9.77